createdAt,value
2023-03-06T00:00:13.423Z,1008.02
2023-03-06T00:01:13.334Z,1008.06
2023-03-06T00:02:13.234Z,1008.03
2023-03-06T00:03:13.120Z,1008.01
2023-03-06T00:04:13.414Z,1008.02
2023-03-06T00:05:13.522Z,1007.94
2023-03-06T00:06:13.457Z,1007.97
2023-03-06T00:07:13.974Z,1007.94
2023-03-06T00:08:13.320Z,1007.94
2023-03-06T00:09:13.410Z,1007.94
2023-03-06T00:10:13.353Z,1007.93
2023-03-06T00:11:13.386Z,1007.92
2023-03-06T00:12:13.707Z,1007.93
2023-03-06T00:13:14.065Z,1007.93
2023-03-06T00:14:13.086Z,1007.94
2023-03-06T00:15:13.179Z,1007.91
2023-03-06T00:16:13.084Z,1007.91
2023-03-06T00:17:13.172Z,1007.90
2023-03-06T00:18:13.198Z,1007.90
2023-03-06T00:19:18.119Z,1007.87
2023-03-06T00:20:13.110Z,1007.87
2023-03-06T00:21:13.077Z,1007.86
2023-03-06T00:22:12.932Z,1007.81
2023-03-06T00:23:12.886Z,1007.83
2023-03-06T00:24:12.725Z,1007.76
2023-03-06T00:25:13.652Z,1007.78
2023-03-06T00:26:13.599Z,1007.78
2023-03-06T00:27:13.718Z,1007.79
2023-03-06T00:28:13.610Z,1007.77
2023-03-06T00:29:13.572Z,1007.76
2023-03-06T00:30:13.506Z,1007.72
2023-03-06T00:31:13.893Z,1007.76
2023-03-06T00:32:12.993Z,1007.76
2023-03-06T00:33:13.191Z,1007.70
2023-03-06T00:34:13.542Z,1007.70
2023-03-06T00:35:13.470Z,1007.70
2023-03-06T00:36:13.767Z,1007.68
2023-03-06T00:37:13.754Z,1007.65
2023-03-06T00:38:13.846Z,1007.64
2023-03-06T00:39:13.941Z,1007.60
2023-03-06T00:40:12.931Z,1007.60
2023-03-06T00:41:12.840Z,1007.54
2023-03-06T00:42:14.146Z,1007.61
2023-03-06T00:43:13.148Z,1007.54
2023-03-06T00:44:13.699Z,1007.57
2023-03-06T00:45:13.659Z,1007.54
2023-03-06T00:46:13.787Z,1007.52
2023-03-06T00:47:14.022Z,1007.47
2023-03-06T00:48:13.277Z,1007.46
2023-03-06T00:49:13.172Z,1007.45
2023-03-06T00:50:13.224Z,1007.44
2023-03-06T00:51:14.120Z,1007.36
2023-03-06T00:52:13.146Z,1007.40
2023-03-06T00:53:13.191Z,1007.37
2023-03-06T00:54:13.072Z,1007.37
2023-03-06T00:55:13.039Z,1007.35
2023-03-06T00:56:13.102Z,1007.36
2023-03-06T00:57:13.307Z,1007.33
2023-03-06T00:58:13.245Z,1007.34
2023-03-06T00:59:13.151Z,1007.34
2023-03-06T01:00:13.091Z,1007.32
2023-03-06T01:01:13.249Z,1007.33
2023-03-06T01:02:14.744Z,1007.29
2023-03-06T01:03:13.722Z,1007.28
2023-03-06T01:04:13.622Z,1007.24
2023-03-06T01:05:13.632Z,1007.25
2023-03-06T01:06:13.577Z,1007.23
2023-03-06T01:07:13.654Z,1007.26
2023-03-06T01:08:13.596Z,1007.28
2023-03-06T01:09:13.618Z,1007.25
2023-03-06T01:10:13.678Z,1007.20
2023-03-06T01:11:13.805Z,1007.25
2023-03-06T01:12:13.876Z,1007.24
2023-03-06T01:13:12.957Z,1007.21
2023-03-06T01:14:13.070Z,1007.22
2023-03-06T01:15:13.491Z,1007.21
2023-03-06T01:16:13.948Z,1007.21
2023-03-06T01:17:12.993Z,1007.19
2023-03-06T01:18:13.302Z,1007.17
2023-03-06T01:19:13.232Z,1007.17
2023-03-06T01:20:13.308Z,1007.20
2023-03-06T01:21:13.160Z,1007.13
2023-03-06T01:22:13.118Z,1007.19
2023-03-06T01:23:13.041Z,1007.09
2023-03-06T01:24:12.980Z,1007.11
2023-03-06T01:25:12.983Z,1007.12
2023-03-06T01:26:12.934Z,1007.10
2023-03-06T01:27:13.284Z,1007.09
2023-03-06T01:28:13.354Z,1007.10
2023-03-06T01:29:13.671Z,1007.08
2023-03-06T01:30:13.618Z,1007.02
2023-03-06T01:31:13.624Z,1007.03
2023-03-06T01:32:14.133Z,1007.03
2023-03-06T01:33:13.476Z,1006.98
2023-03-06T01:34:13.427Z,1007.01
2023-03-06T01:35:13.413Z,1007.00
2023-03-06T01:36:14.022Z,1006.99
2023-03-06T01:37:13.017Z,1006.99
2023-03-06T01:38:13.222Z,1007.03
2023-03-06T01:39:13.319Z,1006.99
2023-03-06T01:40:13.387Z,1007.02
2023-03-06T01:41:13.413Z,1007.00
2023-03-06T01:42:13.689Z,1006.99
2023-03-06T01:43:13.828Z,1006.96
2023-03-06T01:44:14.335Z,1007.01
2023-03-06T01:45:13.489Z,1006.96
2023-03-06T01:46:13.866Z,1006.99
2023-03-06T01:47:12.900Z,1006.93
2023-03-06T01:48:13.018Z,1006.90
2023-03-06T01:49:14.165Z,1006.93
2023-03-06T01:50:13.148Z,1006.91
2023-03-06T01:51:13.006Z,1006.92
2023-03-06T01:52:13.047Z,1006.91
2023-03-06T01:53:12.980Z,1006.92
2023-03-06T01:54:12.972Z,1006.90
2023-03-06T01:55:12.838Z,1006.92
2023-03-06T01:56:13.824Z,1006.88
2023-03-06T01:57:13.773Z,1006.91
2023-03-06T01:58:13.781Z,1006.87
2023-03-06T01:59:13.663Z,1006.90
2023-03-06T02:00:13.691Z,1006.87
2023-03-06T02:01:13.664Z,1006.83
2023-03-06T02:02:13.745Z,1006.80
2023-03-06T02:03:14.209Z,1006.81
2023-03-06T02:04:13.456Z,1006.81
2023-03-06T02:05:13.365Z,1006.81
2023-03-06T02:06:13.468Z,1006.80
2023-03-06T02:07:13.968Z,1006.75
2023-03-06T02:08:13.306Z,1006.73
2023-03-06T02:09:13.931Z,1006.76
2023-03-06T02:10:13.353Z,1006.76
2023-03-06T02:11:13.488Z,1006.74
2023-03-06T02:12:13.859Z,1006.72
2023-03-06T02:13:13.881Z,1006.70
2023-03-06T02:14:13.756Z,1006.69
2023-03-06T02:15:13.669Z,1006.66
2023-03-06T02:16:13.697Z,1006.66
2023-03-06T02:17:13.611Z,1006.62
2023-03-06T02:18:13.731Z,1006.67
2023-03-06T02:19:13.586Z,1006.67
2023-03-06T02:20:13.505Z,1006.68
2023-03-06T02:21:13.581Z,1006.68
2023-03-06T02:22:13.880Z,1006.66
2023-03-06T02:23:14.073Z,1006.63
2023-03-06T02:24:13.410Z,1006.65
2023-03-06T02:25:13.724Z,1006.63
2023-03-06T02:26:13.675Z,1006.63
2023-03-06T02:27:13.962Z,1006.64
2023-03-06T02:28:13.543Z,1006.61
2023-03-06T02:29:13.421Z,1006.58
2023-03-06T02:30:13.455Z,1006.59
2023-03-06T02:31:13.598Z,1006.59
2023-03-06T02:32:13.952Z,1006.58
2023-03-06T02:33:13.199Z,1006.51
2023-03-06T02:34:13.516Z,1006.55
2023-03-06T02:35:14.687Z,1006.52
2023-03-06T02:36:14.056Z,1006.53
2023-03-06T02:37:12.995Z,1006.50
2023-03-06T02:38:12.940Z,1006.48
2023-03-06T02:39:13.171Z,1006.45
2023-03-06T02:40:12.993Z,1006.48
2023-03-06T02:41:12.995Z,1006.45
2023-03-06T02:42:13.066Z,1006.40
2023-03-06T02:43:13.030Z,1006.42
2023-03-06T02:44:12.900Z,1006.38
2023-03-06T02:45:12.873Z,1006.38
2023-03-06T02:46:14.197Z,1006.40
2023-03-06T02:47:13.155Z,1006.39
2023-03-06T02:48:13.423Z,1006.36
2023-03-06T02:49:13.421Z,1006.33
2023-03-06T02:50:13.407Z,1006.30
2023-03-06T02:51:13.521Z,1006.32
2023-03-06T02:52:13.454Z,1006.32
2023-03-06T02:53:13.302Z,1006.31
2023-03-06T02:54:13.296Z,1006.31
2023-03-06T02:55:13.163Z,1006.29
2023-03-06T02:56:13.104Z,1006.25
2023-03-06T02:57:13.470Z,1006.25
2023-03-06T02:58:13.758Z,1006.25
2023-03-06T02:59:13.988Z,1006.22
2023-03-06T03:00:13.199Z,1006.20
2023-03-06T03:01:13.282Z,1006.21
2023-03-06T03:02:13.211Z,1006.20
2023-03-06T03:03:13.345Z,1006.18
2023-03-06T03:04:13.675Z,1006.22
2023-03-06T03:05:13.577Z,1006.17
2023-03-06T03:06:13.544Z,1006.13
2023-03-06T03:07:13.767Z,1006.17
2023-03-06T03:08:13.835Z,1006.12
2023-03-06T03:09:13.741Z,1006.14
2023-03-06T03:10:13.807Z,1006.18
2023-03-06T03:11:13.845Z,1006.11
2023-03-06T03:12:13.860Z,1006.14
2023-03-06T03:13:14.054Z,1006.13
2023-03-06T03:14:13.461Z,1006.15
2023-03-06T03:15:13.466Z,1006.13
2023-03-06T03:16:13.750Z,1006.15
2023-03-06T03:17:13.804Z,1006.13
2023-03-06T03:18:13.811Z,1006.16
2023-03-06T03:19:14.101Z,1006.16
2023-03-06T03:20:13.348Z,1006.15
2023-03-06T03:21:13.633Z,1006.14
2023-03-06T03:22:13.710Z,1006.09
2023-03-06T03:23:13.787Z,1006.16
2023-03-06T03:24:13.738Z,1006.13
2023-03-06T03:25:13.714Z,1006.08
2023-03-06T03:26:13.648Z,1006.13
2023-03-06T03:27:13.627Z,1006.09
2023-03-06T03:28:13.554Z,1006.08
2023-03-06T03:29:13.553Z,1006.09
2023-03-06T03:30:13.619Z,1006.09
2023-03-06T03:31:13.753Z,1006.06
2023-03-06T03:32:13.775Z,1006.05
2023-03-06T03:33:13.697Z,1006.04
2023-03-06T03:34:13.531Z,1006.02
2023-03-06T03:35:13.484Z,1006.01
2023-03-06T03:36:13.465Z,1006.01
2023-03-06T03:37:13.397Z,1005.97
2023-03-06T03:38:13.228Z,1005.97
2023-03-06T03:39:13.086Z,1005.99
2023-03-06T03:40:13.156Z,1005.95
2023-03-06T03:41:13.056Z,1005.99
2023-03-06T03:42:13.034Z,1005.93
2023-03-06T03:43:13.035Z,1005.94
2023-03-06T03:44:12.961Z,1005.93
2023-03-06T03:45:12.868Z,1005.93
2023-03-06T03:46:13.730Z,1005.95
2023-03-06T03:47:14.097Z,1005.90
2023-03-06T03:48:13.259Z,1005.91
2023-03-06T03:49:13.118Z,1005.95
2023-03-06T03:50:13.142Z,1005.94
2023-03-06T03:51:13.465Z,1005.92
2023-03-06T03:52:13.697Z,1005.93
2023-03-06T03:53:13.600Z,1005.90
2023-03-06T03:54:13.683Z,1005.91
2023-03-06T03:55:13.677Z,1005.88
2023-03-06T03:56:14.273Z,1005.87
2023-03-06T03:57:13.762Z,1005.87
2023-03-06T03:58:13.971Z,1005.84
2023-03-06T03:59:13.269Z,1005.85
2023-03-06T04:00:13.392Z,1005.83
2023-03-06T04:01:13.627Z,1005.82
2023-03-06T04:02:13.604Z,1005.84
2023-03-06T04:03:13.574Z,1005.83
2023-03-06T04:04:13.495Z,1005.83
2023-03-06T04:05:13.554Z,1005.86
2023-03-06T04:06:13.602Z,1005.83
2023-03-06T04:07:14.991Z,1005.83
2023-03-06T04:08:13.223Z,1005.78
2023-03-06T04:09:13.505Z,1005.77
2023-03-06T04:10:13.506Z,1005.76
2023-03-06T04:11:13.839Z,1005.76
2023-03-06T04:12:13.794Z,1005.83
2023-03-06T04:13:13.743Z,1005.80
2023-03-06T04:14:13.962Z,1005.79
2023-03-06T04:15:12.832Z,1005.75
2023-03-06T04:16:13.919Z,1005.79
2023-03-06T04:17:12.998Z,1005.76
2023-03-06T04:18:13.219Z,1005.73
2023-03-06T04:19:13.498Z,1005.76
2023-03-06T04:20:13.563Z,1005.74
2023-03-06T04:21:13.887Z,1005.74
2023-03-06T04:22:12.823Z,1005.73
2023-03-06T04:23:13.811Z,1005.71
2023-03-06T04:24:13.870Z,1005.70
2023-03-06T04:25:13.950Z,1005.69
2023-03-06T04:26:13.364Z,1005.71
2023-03-06T04:27:13.207Z,1005.63
2023-03-06T04:28:13.416Z,1005.63
2023-03-06T04:29:13.437Z,1005.65
2023-03-06T04:30:13.382Z,1005.63
2023-03-06T04:31:13.511Z,1005.61
2023-03-06T04:32:13.536Z,1005.63
2023-03-06T04:33:13.713Z,1005.63
2023-03-06T04:34:13.866Z,1005.63
2023-03-06T04:35:13.854Z,1005.58
2023-03-06T04:36:13.966Z,1005.57
2023-03-06T04:37:13.106Z,1005.53
2023-03-06T04:38:12.996Z,1005.52
2023-03-06T04:39:13.146Z,1005.49
2023-03-06T04:40:13.202Z,1005.48
2023-03-06T04:41:13.193Z,1005.48
2023-03-06T04:42:13.216Z,1005.47
2023-03-06T04:43:13.109Z,1005.43
2023-03-06T04:44:13.023Z,1005.41
2023-03-06T04:45:12.981Z,1005.38
2023-03-06T04:46:12.909Z,1005.42
2023-03-06T04:47:13.232Z,1005.40
2023-03-06T04:48:13.208Z,1005.42
2023-03-06T04:49:13.744Z,1005.33
2023-03-06T04:50:13.603Z,1005.36
2023-03-06T04:51:13.988Z,1005.35
2023-03-06T04:52:13.227Z,1005.31
2023-03-06T04:53:13.392Z,1005.31
2023-03-06T04:54:13.293Z,1005.32
2023-03-06T04:55:13.367Z,1005.32
2023-03-06T04:56:13.255Z,1005.32
2023-03-06T04:57:13.568Z,1005.33
2023-03-06T04:58:13.523Z,1005.31
2023-03-06T04:59:13.922Z,1005.26
2023-03-06T05:00:13.024Z,1005.28
2023-03-06T05:01:13.108Z,1005.26
2023-03-06T05:02:13.101Z,1005.26
2023-03-06T05:03:13.115Z,1005.31
2023-03-06T05:04:13.201Z,1005.30
2023-03-06T05:05:13.149Z,1005.29
2023-03-06T05:06:13.093Z,1005.35
2023-03-06T05:07:13.455Z,1005.28
2023-03-06T05:08:13.836Z,1005.29
2023-03-06T05:09:13.870Z,1005.30
2023-03-06T05:10:13.794Z,1005.26
2023-03-06T05:11:13.850Z,1005.30
2023-03-06T05:12:15.173Z,1005.31
2023-03-06T05:13:13.286Z,1005.28
2023-03-06T05:14:13.321Z,1005.30
2023-03-06T05:15:13.577Z,1005.27
2023-03-06T05:16:13.470Z,1005.38
2023-03-06T05:17:13.670Z,1005.27
2023-03-06T05:18:13.776Z,1005.31
2023-03-06T05:19:14.089Z,1005.26
2023-03-06T05:20:13.289Z,1005.25
2023-03-06T05:21:13.570Z,1005.28
2023-03-06T05:22:13.518Z,1005.26
2023-03-06T05:23:13.459Z,1005.23
2023-03-06T05:24:13.623Z,1005.23
2023-03-06T05:25:13.605Z,1005.26
2023-03-06T05:26:13.723Z,1005.26
2023-03-06T05:27:16.531Z,1005.23
2023-03-06T05:28:12.919Z,1005.26
2023-03-06T05:29:12.833Z,1005.25
2023-03-06T05:30:13.945Z,1005.27
2023-03-06T05:31:13.651Z,1005.27
2023-03-06T05:32:14.026Z,1005.30
2023-03-06T05:33:13.031Z,1005.31
2023-03-06T05:34:13.083Z,1005.33
2023-03-06T05:35:13.150Z,1005.29
2023-03-06T05:36:13.411Z,1005.30
2023-03-06T05:37:13.339Z,1005.27
2023-03-06T05:38:13.842Z,1005.30
2023-03-06T05:39:14.355Z,1005.25
2023-03-06T05:40:13.624Z,1005.28
2023-03-06T05:41:13.888Z,1005.25
2023-03-06T05:42:12.827Z,1005.23
2023-03-06T05:43:14.080Z,1005.22
2023-03-06T05:44:13.068Z,1005.26
2023-03-06T05:45:13.135Z,1005.25
2023-03-06T05:46:13.489Z,1005.23
2023-03-06T05:47:13.515Z,1005.26
2023-03-06T05:48:13.444Z,1005.24
2023-03-06T05:49:13.883Z,1005.25
2023-03-06T05:50:13.790Z,1005.23
2023-03-06T05:51:13.797Z,1005.21
2023-03-06T05:52:13.611Z,1005.18
2023-03-06T05:53:13.533Z,1005.20
2023-03-06T05:54:13.574Z,1005.15
2023-03-06T05:55:13.746Z,1005.15
2023-03-06T05:56:13.903Z,1005.19
2023-03-06T05:57:13.172Z,1005.13
2023-03-06T05:58:13.177Z,1005.16
2023-03-06T05:59:13.072Z,1005.13
2023-03-06T06:00:12.999Z,1005.10
2023-03-06T06:01:12.939Z,1005.13
2023-03-06T06:02:13.149Z,1005.15
2023-03-06T06:03:13.342Z,1005.15
2023-03-06T06:04:13.324Z,1005.16
2023-03-06T06:05:13.500Z,1005.19
2023-03-06T06:06:13.404Z,1005.15
2023-03-06T06:07:13.743Z,1005.15
2023-03-06T06:08:13.797Z,1005.16
2023-03-06T06:09:14.032Z,1005.18
2023-03-06T06:10:13.074Z,1005.19
2023-03-06T06:11:13.072Z,1005.16
2023-03-06T06:12:13.123Z,1005.14
2023-03-06T06:13:12.985Z,1005.17
2023-03-06T06:14:12.905Z,1005.18
2023-03-06T06:15:12.807Z,1005.15
2023-03-06T06:16:14.302Z,1005.15
2023-03-06T06:17:13.597Z,1005.17
2023-03-06T06:18:13.501Z,1005.11
2023-03-06T06:19:13.834Z,1005.09
2023-03-06T06:20:14.765Z,1005.09
2023-03-06T06:21:13.948Z,1005.12
2023-03-06T06:22:13.043Z,1005.15
2023-03-06T06:23:12.876Z,1005.13
2023-03-06T06:24:13.715Z,1005.16
2023-03-06T06:25:18.579Z,1005.15
2023-03-06T06:26:13.713Z,1005.15
2023-03-06T06:27:13.953Z,1005.17
2023-03-06T06:28:13.237Z,1005.09
2023-03-06T06:29:13.140Z,1005.09
2023-03-06T06:30:12.993Z,1005.14
2023-03-06T06:31:12.947Z,1005.14
2023-03-06T06:32:12.917Z,1005.12
2023-03-06T06:33:12.901Z,1005.13
2023-03-06T06:34:12.798Z,1005.14
2023-03-06T06:35:14.042Z,1005.10
2023-03-06T06:36:13.071Z,1005.07
2023-03-06T06:37:12.918Z,1005.05
2023-03-06T06:38:12.899Z,1005.05
2023-03-06T06:39:12.907Z,1005.04
2023-03-06T06:40:12.826Z,1005.03
2023-03-06T06:41:36.029Z,1005.04
2023-03-06T06:42:30.539Z,1005.04
2023-03-06T06:43:13.151Z,1005.03
2023-03-06T06:44:13.056Z,1005.04
2023-03-06T06:45:12.867Z,1005.01
2023-03-06T06:46:44.629Z,1004.98
2023-03-06T06:47:24.909Z,1005.00
2023-03-06T06:48:13.267Z,1004.99
2023-03-06T06:49:13.126Z,1005.00
2023-03-06T06:50:13.341Z,1005.01
2023-03-06T06:51:13.230Z,1005.03
2023-03-06T06:52:13.515Z,1005.00
2023-03-06T06:53:13.590Z,1004.98
2023-03-06T06:54:13.887Z,1004.99
2023-03-06T06:55:12.898Z,1004.98
2023-03-06T06:56:12.983Z,1004.96
2023-03-06T06:57:13.047Z,1004.94
2023-03-06T06:58:13.234Z,1004.97
2023-03-06T06:59:17.185Z,1004.99
2023-03-06T07:00:13.631Z,1004.98
2023-03-06T07:01:13.986Z,1005.00
2023-03-06T07:02:14.348Z,1005.01
2023-03-06T07:03:13.969Z,1005.02
2023-03-06T07:04:13.315Z,1005.02
2023-03-06T07:05:13.605Z,1004.99
2023-03-06T07:06:13.653Z,1004.98
2023-03-06T07:07:13.712Z,1004.97
2023-03-06T07:08:13.551Z,1005.02
2023-03-06T07:09:13.935Z,1005.03
2023-03-06T07:10:12.948Z,1005.03
2023-03-06T07:11:13.927Z,1005.01
2023-03-06T07:12:13.287Z,1004.95
2023-03-06T07:13:13.347Z,1005.04
2023-03-06T07:14:13.337Z,1005.00
2023-03-06T07:15:13.557Z,1005.04
2023-03-06T07:16:13.616Z,1005.04
2023-03-06T07:17:13.769Z,1004.97
2023-03-06T07:18:13.915Z,1005.02
2023-03-06T07:19:12.886Z,1005.06
2023-03-06T07:20:12.798Z,1005.06
2023-03-06T07:21:13.632Z,1005.07
2023-03-06T07:22:13.542Z,1005.06
2023-03-06T07:23:13.500Z,1005.08
2023-03-06T07:24:13.526Z,1005.06
2023-03-06T07:25:13.621Z,1005.06
2023-03-06T07:26:13.609Z,1005.08
2023-03-06T07:27:13.544Z,1005.08
2023-03-06T07:28:13.724Z,1005.09
2023-03-06T07:29:14.679Z,1005.03
2023-03-06T07:30:14.547Z,1005.10
2023-03-06T07:31:13.645Z,1005.10
2023-03-06T07:32:13.720Z,1005.10
2023-03-06T07:33:13.629Z,1005.07
2023-03-06T07:34:13.838Z,1005.10
2023-03-06T07:35:20.154Z,1005.08
2023-03-06T07:36:14.041Z,1005.11
2023-03-06T07:37:13.151Z,1005.02
2023-03-06T07:38:13.033Z,1005.11
2023-03-06T07:39:12.958Z,1004.96
2023-03-06T07:40:12.906Z,1005.16
2023-03-06T07:41:12.983Z,1005.10
2023-03-06T07:42:18.282Z,1005.14
2023-03-06T07:43:19.509Z,1005.10
2023-03-06T07:44:13.781Z,1005.06
2023-03-06T07:45:14.004Z,1005.03
2023-03-06T07:46:13.564Z,1005.04
2023-03-06T07:47:13.596Z,1005.06
2023-03-06T07:48:13.884Z,1005.10
2023-03-06T07:49:12.975Z,1005.08
2023-03-06T07:50:12.899Z,1005.08
2023-03-06T07:51:13.019Z,1005.03
2023-03-06T07:52:12.998Z,1005.06
2023-03-06T07:53:12.860Z,1005.05
2023-03-06T07:54:13.740Z,1005.09
2023-03-06T07:55:13.963Z,1005.10
2023-03-06T07:56:13.120Z,1005.13
2023-03-06T07:57:13.077Z,1005.14
2023-03-06T07:58:12.987Z,1005.14
2023-03-06T07:59:13.042Z,1005.14
2023-03-06T08:00:13.433Z,1005.13
2023-03-06T08:01:13.472Z,1005.11
2023-03-06T08:02:13.682Z,1005.17
2023-03-06T08:03:13.608Z,1005.17
2023-03-06T08:04:13.613Z,1005.16
2023-03-06T08:05:13.905Z,1005.15
2023-03-06T08:06:12.992Z,1005.18
2023-03-06T08:07:13.455Z,1005.10
2023-03-06T08:08:14.191Z,1005.16
2023-03-06T08:09:13.213Z,1005.16
2023-03-06T08:10:13.348Z,1005.18
2023-03-06T08:11:38.514Z,1005.14
2023-03-06T08:12:15.713Z,1005.11
2023-03-06T08:13:13.349Z,1005.15
2023-03-06T08:14:13.412Z,1005.16
2023-03-06T08:15:13.357Z,1005.12
2023-03-06T08:16:18.332Z,1005.08
2023-03-06T08:17:13.260Z,1005.11
2023-03-06T08:18:13.174Z,1005.07
2023-03-06T08:19:13.105Z,1005.07
2023-03-06T08:20:13.007Z,1005.09
2023-03-06T08:21:13.661Z,1005.09
2023-03-06T08:22:13.742Z,1005.11
2023-03-06T08:23:14.288Z,1005.12
2023-03-06T08:24:13.274Z,1005.08
2023-03-06T08:25:13.235Z,1005.08
2023-03-06T08:26:13.239Z,1005.11
2023-03-06T08:27:13.221Z,1005.02
2023-03-06T08:28:13.359Z,1005.09
2023-03-06T08:29:13.202Z,1005.05
2023-03-06T08:30:13.088Z,1005.07
2023-03-06T08:31:13.214Z,1005.06
2023-03-06T08:32:13.200Z,1005.16
2023-03-06T08:33:18.322Z,1005.16
2023-03-06T08:34:13.343Z,1005.13
2023-03-06T08:35:13.468Z,1005.09
2023-03-06T08:36:13.492Z,1005.11
2023-03-06T08:37:13.524Z,1005.13
2023-03-06T08:38:13.439Z,1005.08
2023-03-06T08:39:13.407Z,1005.12
2023-03-06T08:40:13.394Z,1005.10
2023-03-06T08:41:13.401Z,1005.12
2023-03-06T08:42:13.484Z,1005.12
2023-03-06T08:43:14.400Z,1005.08
2023-03-06T08:44:28.709Z,1005.10
2023-03-06T08:45:18.854Z,1005.10
2023-03-06T08:46:13.815Z,1005.07
2023-03-06T08:47:14.016Z,1005.10
2023-03-06T08:48:13.023Z,1005.11
2023-03-06T08:49:12.911Z,1005.13
2023-03-06T08:50:13.136Z,1005.16
2023-03-06T08:51:13.299Z,1005.12
2023-03-06T08:52:13.381Z,1005.07
2023-03-06T08:53:13.507Z,1005.12
2023-03-06T08:54:13.453Z,1005.07
2023-03-06T08:55:15.025Z,1005.08
2023-03-06T08:56:13.233Z,1005.10
2023-03-06T08:57:13.852Z,1005.08
2023-03-06T08:58:13.801Z,1005.07
2023-03-06T08:59:14.001Z,1005.11
2023-03-06T09:00:13.023Z,1005.12
2023-03-06T09:01:13.101Z,1005.01
2023-03-06T09:02:13.319Z,1005.10
2023-03-06T09:03:13.347Z,1005.07
2023-03-06T09:04:13.298Z,1005.04
2023-03-06T09:05:13.384Z,1005.08
2023-03-06T09:06:13.591Z,1005.12
2023-03-06T09:07:13.850Z,1005.10
2023-03-06T09:08:12.722Z,1005.12
2023-03-06T09:09:13.906Z,1005.09
2023-03-06T09:10:12.795Z,1005.10
2023-03-06T09:11:13.796Z,1005.09
2023-03-06T09:12:13.675Z,1005.09
2023-03-06T09:13:50.135Z,1005.08
2023-03-06T09:14:13.501Z,1005.10
2023-03-06T09:15:18.544Z,1005.13
2023-03-06T09:16:18.810Z,1005.13
2023-03-06T09:18:13.823Z,1005.13
2023-03-06T09:19:13.701Z,1005.17
2023-03-06T09:20:13.957Z,1005.17
2023-03-06T09:21:13.459Z,1005.13
2023-03-06T09:22:13.735Z,1005.14
2023-03-06T09:23:21.196Z,1005.16
2023-03-06T09:24:13.218Z,1005.16
2023-03-06T09:25:13.236Z,1005.21
2023-03-06T09:26:18.174Z,1005.22
2023-03-06T09:27:13.076Z,1005.20
2023-03-06T09:28:12.973Z,1005.22
2023-03-06T09:29:13.155Z,1005.20
2023-03-06T09:30:13.157Z,1005.20
2023-03-06T09:31:13.376Z,1005.23
2023-03-06T09:32:13.451Z,1005.25
2023-03-06T09:33:13.583Z,1005.25
2023-03-06T09:34:13.718Z,1005.29
2023-03-06T09:35:13.573Z,1005.26
2023-03-06T09:36:13.549Z,1005.29
2023-03-06T09:37:13.961Z,1005.24
2023-03-06T09:38:13.833Z,1005.21
2023-03-06T09:39:14.001Z,1005.17
2023-03-06T09:40:12.922Z,1005.23
2023-03-06T09:41:13.066Z,1005.22
2023-03-06T09:42:13.050Z,1005.23
2023-03-06T09:43:13.086Z,1005.26
2023-03-06T09:44:12.980Z,1005.26
2023-03-06T09:46:28.980Z,1005.23
2023-03-06T09:47:13.000Z,1005.26
2023-03-06T09:49:25.621Z,1005.22
2023-03-06T09:50:13.771Z,1005.23
2023-03-06T09:51:13.886Z,1005.21
2023-03-06T09:52:18.016Z,1005.21
2023-03-06T09:53:16.208Z,1005.19
2023-03-06T09:54:13.289Z,1005.20
2023-03-06T09:55:13.737Z,1005.19
2023-03-06T09:56:14.023Z,1005.22
2023-03-06T09:57:13.234Z,1005.23
2023-03-06T09:58:13.301Z,1005.17
2023-03-06T09:59:13.526Z,1005.22
2023-03-06T10:00:18.581Z,1005.25
2023-03-06T10:01:13.968Z,1005.22
2023-03-06T10:02:13.034Z,1005.25
2023-03-06T10:03:21.861Z,1005.26
2023-03-06T10:04:13.146Z,1005.22
2023-03-06T10:05:13.363Z,1005.25
2023-03-06T10:06:13.390Z,1005.24
2023-03-06T10:07:13.462Z,1005.24
2023-03-06T10:08:13.585Z,1005.23
2023-03-06T10:09:13.711Z,1005.24
2023-03-06T10:10:13.815Z,1005.27
2023-03-06T10:11:13.795Z,1005.27
2023-03-06T10:12:13.826Z,1005.26
2023-03-06T10:13:13.884Z,1005.24
2023-03-06T10:14:12.927Z,1005.24
2023-03-06T10:15:13.016Z,1005.21
2023-03-06T10:16:13.061Z,1005.21
2023-03-06T10:17:13.200Z,1005.24
2023-03-06T10:18:13.159Z,1005.22
2023-03-06T10:19:13.253Z,1005.20
2023-03-06T10:20:13.225Z,1005.20
2023-03-06T10:21:19.010Z,1005.23
2023-03-06T10:22:13.580Z,1005.19
2023-03-06T10:23:13.876Z,1005.21
2023-03-06T10:24:13.938Z,1005.18
2023-03-06T10:25:12.992Z,1005.15
2023-03-06T10:26:13.185Z,1005.16
2023-03-06T10:27:13.525Z,1005.15
2023-03-06T10:28:14.144Z,1005.18
2023-03-06T10:29:13.075Z,1005.18
2023-03-06T10:30:13.084Z,1005.19
2023-03-06T10:31:13.232Z,1005.18
2023-03-06T10:32:13.320Z,1005.17
2023-03-06T10:33:13.310Z,1005.21
2023-03-06T10:35:12.821Z,1005.21
2023-03-06T10:36:13.802Z,1005.21
2023-03-06T10:37:14.267Z,1005.20
2023-03-06T10:38:14.551Z,1005.23
2023-03-06T10:39:13.420Z,1005.22
2023-03-06T10:40:13.346Z,1005.23
2023-03-06T10:41:13.256Z,1005.20
2023-03-06T10:42:13.172Z,1005.23
2023-03-06T10:43:13.664Z,1005.20
2023-03-06T10:44:13.542Z,1005.24
2023-03-06T10:45:13.517Z,1005.22
2023-03-06T10:46:13.655Z,1005.27
2023-03-06T10:47:13.481Z,1005.28
2023-03-06T10:48:13.392Z,1005.21
2023-03-06T10:49:13.657Z,1005.25
2023-03-06T10:50:13.599Z,1005.23
2023-03-06T10:51:18.600Z,1005.17
2023-03-06T10:52:13.062Z,1005.23
2023-03-06T10:53:13.383Z,1005.21
2023-03-06T10:54:13.686Z,1005.18
2023-03-06T10:55:13.646Z,1005.23
2023-03-06T10:56:13.881Z,1005.24
2023-03-06T10:57:14.019Z,1005.25
2023-03-06T10:58:13.030Z,1005.25
2023-03-06T10:59:13.292Z,1005.23
2023-03-06T11:00:13.728Z,1005.28
2023-03-06T11:01:13.689Z,1005.27
2023-03-06T11:02:13.696Z,1005.21
2023-03-06T11:03:14.178Z,1005.23
2023-03-06T11:04:13.154Z,1005.23
2023-03-06T11:05:13.150Z,1005.25
2023-03-06T11:06:13.396Z,1005.21
2023-03-06T11:07:13.388Z,1005.26
2023-03-06T11:08:13.745Z,1005.19
2023-03-06T11:09:13.777Z,1005.22
2023-03-06T11:10:13.652Z,1005.26
2023-03-06T11:11:14.092Z,1005.23
2023-03-06T11:12:12.911Z,1005.24
2023-03-06T11:13:13.104Z,1005.27
2023-03-06T11:14:13.095Z,1005.27
2023-03-06T11:15:12.984Z,1005.24
2023-03-06T11:16:13.116Z,1005.29
2023-03-06T11:17:13.063Z,1005.31
2023-03-06T11:18:13.226Z,1005.30
2023-03-06T11:19:13.088Z,1005.32
2023-03-06T11:20:12.973Z,1005.32
2023-03-06T11:21:13.343Z,1005.30
2023-03-06T11:22:13.609Z,1005.27
2023-03-06T11:23:13.892Z,1005.30
2023-03-06T11:24:12.886Z,1005.26
2023-03-06T11:25:12.810Z,1005.28
2023-03-06T11:26:13.722Z,1005.25
2023-03-06T11:27:13.628Z,1005.24
2023-03-06T11:28:13.682Z,1005.31
2023-03-06T11:29:13.902Z,1005.25
2023-03-06T11:30:12.856Z,1005.20
2023-03-06T11:31:14.263Z,1005.22
2023-03-06T11:32:13.313Z,1005.27
2023-03-06T11:33:13.315Z,1005.27
2023-03-06T11:34:13.314Z,1005.21
2023-03-06T11:35:13.286Z,1005.22
2023-03-06T11:36:13.251Z,1005.19
2023-03-06T11:37:13.591Z,1005.21
2023-03-06T11:38:13.737Z,1005.18
2023-03-06T11:39:15.559Z,1005.20
2023-03-06T11:40:13.699Z,1005.20
2023-03-06T11:41:14.067Z,1005.17
2023-03-06T11:42:13.057Z,1005.17
2023-03-06T11:43:13.157Z,1005.15
2023-03-06T11:44:13.128Z,1005.13
2023-03-06T11:45:13.000Z,1005.17
2023-03-06T11:46:13.073Z,1005.17
2023-03-06T11:47:13.152Z,1005.19
2023-03-06T11:48:18.129Z,1005.15
2023-03-06T11:49:13.456Z,1005.12
2023-03-06T11:50:13.509Z,1005.18
2023-03-06T11:51:13.658Z,1005.18
2023-03-06T11:52:13.748Z,1005.18
2023-03-06T11:53:13.587Z,1005.18
2023-03-06T11:54:13.748Z,1005.18
2023-03-06T11:55:13.787Z,1005.16
2023-03-06T11:56:14.046Z,1005.14
2023-03-06T11:57:13.211Z,1005.11
2023-03-06T11:58:13.262Z,1005.07
2023-03-06T11:59:13.200Z,1005.12
2023-03-06T12:00:13.274Z,1005.06
2023-03-06T12:01:13.247Z,1005.06
2023-03-06T12:02:13.277Z,1005.11
2023-03-06T12:03:13.318Z,1005.10
2023-03-06T12:04:16.782Z,1005.06
2023-03-06T12:05:14.098Z,1005.04
2023-03-06T12:06:13.091Z,1004.99
2023-03-06T12:07:18.080Z,1005.06
2023-03-06T12:09:43.777Z,1005.04
2023-03-06T12:10:14.292Z,1005.04